sensor_id;sensor_type;location;lat;lon;timestamp;pressure;altitude;pressure_sealevel;temperature;humidity
8051;BME280;4068;42.158;24.732;2023-04-30T00:02:10;99360.34;;;13.72;90.67
8051;BME280;4068;42.158;24.732;2023-04-30T00:04:36;99353.19;;;13.73;90.13
8051;BME280;4068;42.158;24.732;2023-04-30T00:07:01;99360.50;;;13.71;90.13
8051;BME280;4068;42.158;24.732;2023-04-30T00:09:27;99362.63;;;13.67;92.47
8051;BME280;4068;42.158;24.732;2023-04-30T00:11:53;99356.16;;;13.70;91.98
8051;BME280;4068;42.158;24.732;2023-04-30T00:14:18;99349.97;;;13.69;91.63
8051;BME280;4068;42.158;24.732;2023-04-30T00:16:43;99356.53;;;13.75;92.14
8051;BME280;4068;42.158;24.732;2023-04-30T00:19:09;99357.41;;;13.75;92.01
8051;BME280;4068;42.158;24.732;2023-04-30T00:21:34;99333.06;;;13.60;92.05
8051;BME280;4068;42.158;24.732;2023-04-30T00:24:00;99356.16;;;13.70;92.26
8051;BME280;4068;42.158;24.732;2023-04-30T00:26:26;99365.53;;;13.74;92.13
8051;BME280;4068;42.158;24.732;2023-04-30T00:28:51;99367.34;;;13.73;92.64
8051;BME280;4068;42.158;24.732;2023-04-30T00:31:16;99366.13;;;13.68;93.11
8051;BME280;4068;42.158;24.732;2023-04-30T00:33:42;99366.72;;;13.61;93.79
8051;BME280;4068;42.158;24.732;2023-04-30T00:36:07;99367.09;;;13.67;93.60
8051;BME280;4068;42.158;24.732;2023-04-30T00:38:33;99346.00;;;13.55;93.87
8051;BME280;4068;42.158;24.732;2023-04-30T00:40:58;99351.72;;;13.60;94.04
8051;BME280;4068;42.158;24.732;2023-04-30T00:43:24;99366.69;;;13.71;94.54
8051;BME280;4068;42.158;24.732;2023-04-30T00:45:50;99369.19;;;13.73;94.51
8051;BME280;4068;42.158;24.732;2023-04-30T00:48:15;99347.09;;;13.62;94.59
8051;BME280;4068;42.158;24.732;2023-04-30T00:50:43;99359.19;;;13.75;94.09
8051;BME280;4068;42.158;24.732;2023-04-30T00:53:09;99337.56;;;13.60;94.22
8051;BME280;4068;42.158;24.732;2023-04-30T00:55:34;99349.56;;;13.74;94.47
8051;BME280;4068;42.158;24.732;2023-04-30T00:58:00;99353.03;;;13.74;94.60
8051;BME280;4068;42.158;24.732;2023-04-30T01:00:26;99354.47;;;13.69;95.20
8051;BME280;4068;42.158;24.732;2023-04-30T01:02:52;99339.91;;;13.63;95.96
8051;BME280;4068;42.158;24.732;2023-04-30T01:05:18;99318.84;;;13.42;97.01
8051;BME280;4068;42.158;24.732;2023-04-30T01:07:44;99349.75;;;13.62;96.50
8051;BME280;4068;42.158;24.732;2023-04-30T01:10:13;99351.00;;;13.68;96.17
8051;BME280;4068;42.158;24.732;2023-04-30T01:12:57;99338.78;;;13.66;95.94
8051;BME280;4068;42.158;24.732;2023-04-30T01:15:41;99338.50;;;13.69;96.11
8051;BME280;4068;42.158;24.732;2023-04-30T01:18:24;99332.22;;;13.60;95.41
8051;BME280;4068;42.158;24.732;2023-04-30T01:20:56;99350.53;;;13.73;94.30
8051;BME280;4068;42.158;24.732;2023-04-30T01:26:19;99347.72;;;13.74;93.10
8051;BME280;4068;42.158;24.732;2023-04-30T01:28:52;99351.66;;;13.70;92.83
8051;BME280;4068;42.158;24.732;2023-04-30T01:31:18;99324.13;;;13.52;93.30
8051;BME280;4068;42.158;24.732;2023-04-30T01:33:43;99321.47;;;13.52;94.55
8051;BME280;4068;42.158;24.732;2023-04-30T01:41:54;99349.34;;;13.57;99.37
8051;BME280;4068;42.158;24.732;2023-04-30T01:45:07;99338.72;;;13.48;100.00
8051;BME280;4068;42.158;24.732;2023-04-30T01:48:02;99345.94;;;13.37;100.00
8051;BME280;4068;42.158;24.732;2023-04-30T01:53:11;99313.50;;;13.04;100.00
8051;BME280;4068;42.158;24.732;2023-04-30T01:55:59;99348.09;;;13.14;100.00
8051;BME280;4068;42.158;24.732;2023-04-30T01:58:26;99291.84;;;12.80;100.00
8051;BME280;4068;42.158;24.732;2023-04-30T02:00:53;99339.13;;;13.05;100.00
8051;BME280;4068;42.158;24.732;2023-04-30T02:03:18;99310.88;;;12.85;100.00
8051;BME280;4068;42.158;24.732;2023-04-30T02:05:44;99309.09;;;12.75;100.00
8051;BME280;4068;42.158;24.732;2023-04-30T02:08:09;99331.34;;;12.84;100.00
8051;BME280;4068;42.158;24.732;2023-04-30T02:10:34;99336.09;;;12.81;100.00
8051;BME280;4068;42.158;24.732;2023-04-30T02:13:00;99340.19;;;12.75;100.00
8051;BME280;4068;42.158;24.732;2023-04-30T02:15:25;99347.19;;;12.76;100.00
8051;BME280;4068;42.158;24.732;2023-04-30T02:17:51;99341.72;;;12.77;100.00
8051;BME280;4068;42.158;24.732;2023-04-30T02:20:17;99341.03;;;12.75;100.00
8051;BME280;4068;42.158;24.732;2023-04-30T02:22:42;99322.97;;;12.69;100.00
8051;BME280;4068;42.158;24.732;2023-04-30T02:25:08;99340.03;;;12.76;100.00
8051;BME280;4068;42.158;24.732;2023-04-30T02:27:35;99322.00;;;12.60;100.00
8051;BME280;4068;42.158;24.732;2023-04-30T02:30:00;99344.41;;;12.58;100.00
8051;BME280;4068;42.158;24.732;2023-04-30T02:32:26;99317.66;;;12.50;100.00
8051;BME280;4068;42.158;24.732;2023-04-30T02:34:52;99333.06;;;12.66;100.00
8051;BME280;4068;42.158;24.732;2023-04-30T02:37:17;99339.22;;;12.66;100.00
8051;BME280;4068;42.158;24.732;2023-04-30T02:39:43;99339.66;;;12.62;100.00
8051;BME280;4068;42.158;24.732;2023-04-30T02:42:08;99343.13;;;12.72;100.00
8051;BME280;4068;42.158;24.732;2023-04-30T02:44:34;99338.91;;;12.69;100.00
8051;BME280;4068;42.158;24.732;2023-04-30T02:47:00;99336.28;;;12.59;100.00
8051;BME280;4068;42.158;24.732;2023-04-30T02:49:27;99312.09;;;12.33;100.00
8051;BME280;4068;42.158;24.732;2023-04-30T02:51:52;99325.81;;;12.29;100.00
8051;BME280;4068;42.158;24.732;2023-04-30T02:54:18;99336.03;;;12.43;100.00
8051;BME280;4068;42.158;24.732;2023-04-30T02:56:45;99327.75;;;12.36;100.00
8051;BME280;4068;42.158;24.732;2023-04-30T02:59:10;99334.91;;;12.46;100.00
8051;BME280;4068;42.158;24.732;2023-04-30T03:01:36;99329.84;;;12.52;100.00
8051;BME280;4068;42.158;24.732;2023-04-30T03:04:01;99339.06;;;12.68;100.00
8051;BME280;4068;42.158;24.732;2023-04-30T03:06:32;99313.44;;;12.67;100.00
8051;BME280;4068;42.158;24.732;2023-04-30T03:08:58;99341.97;;;12.94;100.00
8051;BME280;4068;42.158;24.732;2023-04-30T03:11:24;99339.56;;;13.01;100.00
8051;BME280;4068;42.158;24.732;2023-04-30T03:13:49;99347.00;;;13.07;100.00
8051;BME280;4068;42.158;24.732;2023-04-30T03:16:16;99350.06;;;13.02;100.00
8051;BME280;4068;42.158;24.732;2023-04-30T03:18:42;99343.31;;;13.08;100.00
8051;BME280;4068;42.158;24.732;2023-04-30T03:21:08;99358.28;;;13.19;100.00
8051;BME280;4068;42.158;24.732;2023-04-30T03:23:33;99357.72;;;13.15;100.00
8051;BME280;4068;42.158;24.732;2023-04-30T03:25:59;99360.16;;;13.08;100.00
8051;BME280;4068;42.158;24.732;2023-04-30T03:28:25;99341.84;;;12.86;100.00
8051;BME280;4068;42.158;24.732;2023-04-30T03:30:50;99361.16;;;12.88;100.00
8051;BME280;4068;42.158;24.732;2023-04-30T03:33:16;99365.22;;;12.82;100.00
8051;BME280;4068;42.158;24.732;2023-04-30T03:35:41;99345.94;;;12.60;100.00
8051;BME280;4068;42.158;24.732;2023-04-30T03:38:06;99378.97;;;12.77;100.00
8051;BME280;4068;42.158;24.732;2023-04-30T03:40:32;99381.78;;;12.76;100.00
8051;BME280;4068;42.158;24.732;2023-04-30T03:42:57;99374.75;;;12.75;100.00
8051;BME280;4068;42.158;24.732;2023-04-30T03:45:23;99379.78;;;12.78;100.00
8051;BME280;4068;42.158;24.732;2023-04-30T03:47:48;99379.41;;;12.73;100.00
8051;BME280;4068;42.158;24.732;2023-04-30T03:50:14;99391.44;;;12.77;100.00
8051;BME280;4068;42.158;24.732;2023-04-30T03:52:41;99376.47;;;12.66;100.00
8051;BME280;4068;42.158;24.732;2023-04-30T03:55:07;99371.72;;;12.60;100.00
8051;BME280;4068;42.158;24.732;2023-04-30T03:57:32;99396.06;;;12.75;100.00
8051;BME280;4068;42.158;24.732;2023-04-30T03:59:58;99397.75;;;12.86;100.00
8051;BME280;4068;42.158;24.732;2023-04-30T04:02:24;99398.72;;;12.85;100.00
8051;BME280;4068;42.158;24.732;2023-04-30T04:04:50;99400.78;;;12.91;100.00
8051;BME280;4068;42.158;24.732;2023-04-30T04:07:15;99398.28;;;12.89;100.00
8051;BME280;4068;42.158;24.732;2023-04-30T04:09:40;99391.56;;;12.85;100.00
8051;BME280;4068;42.158;24.732;2023-04-30T04:12:06;99369.06;;;12.70;100.00
8051;BME280;4068;42.158;24.732;2023-04-30T04:14:32;99409.50;;;12.93;100.00
8051;BME280;4068;42.158;24.732;2023-04-30T04:16:57;99375.06;;;12.72;100.00
8051;BME280;4068;42.158;24.732;2023-04-30T04:19:24;99408.09;;;12.99;100.00
8051;BME280;4068;42.158;24.732;2023-04-30T04:21:50;99385.13;;;12.88;100.00
8051;BME280;4068;42.158;24.732;2023-04-30T04:24:15;99409.34;;;13.04;100.00
8051;BME280;4068;42.158;24.732;2023-04-30T04:26:41;99411.28;;;13.12;100.00
8051;BME280;4068;42.158;24.732;2023-04-30T04:29:06;99412.38;;;13.19;100.00
8051;BME280;4068;42.158;24.732;2023-04-30T04:31:35;99403.28;;;13.22;100.00
8051;BME280;4068;42.158;24.732;2023-04-30T04:34:02;99400.47;;;13.13;100.00
8051;BME280;4068;42.158;24.732;2023-04-30T04:36:28;99419.91;;;13.34;100.00
8051;BME280;4068;42.158;24.732;2023-04-30T04:38:57;99419.09;;;13.43;100.00
8051;BME280;4068;42.158;24.732;2023-04-30T04:41:30;99410.78;;;13.56;100.00
8051;BME280;4068;42.158;24.732;2023-04-30T04:43:57;99401.47;;;13.70;100.00
8051;BME280;4068;42.158;24.732;2023-04-30T04:46:23;99418.84;;;14.02;100.00
8051;BME280;4068;42.158;24.732;2023-04-30T04:48:49;99406.06;;;14.23;98.24
8051;BME280;4068;42.158;24.732;2023-04-30T04:51:14;99398.41;;;14.38;95.33
8051;BME280;4068;42.158;24.732;2023-04-30T04:53:39;99411.28;;;14.61;95.82
8051;BME280;4068;42.158;24.732;2023-04-30T04:56:05;99418.31;;;14.98;95.86
8051;BME280;4068;42.158;24.732;2023-04-30T04:58:31;99418.84;;;15.28;94.65
8051;BME280;4068;42.158;24.732;2023-04-30T05:00:57;99411.75;;;15.18;95.80
8051;BME280;4068;42.158;24.732;2023-04-30T05:03:24;99417.09;;;15.45;94.78
8051;BME280;4068;42.158;24.732;2023-04-30T05:05:51;99427.88;;;15.61;94.02
8051;BME280;4068;42.158;24.732;2023-04-30T05:08:16;99440.63;;;15.41;88.96
8051;BME280;4068;42.158;24.732;2023-04-30T05:10:41;99433.13;;;15.18;90.73
8051;BME280;4068;42.158;24.732;2023-04-30T05:13:07;99426.47;;;14.96;93.98
8051;BME280;4068;42.158;24.732;2023-04-30T05:15:32;99432.41;;;15.08;92.98
8051;BME280;4068;42.158;24.732;2023-04-30T05:17:58;99436.34;;;15.22;91.80
8051;BME280;4068;42.158;24.732;2023-04-30T05:20:23;99433.75;;;15.39;92.06
8051;BME280;4068;42.158;24.732;2023-04-30T05:22:48;99435.59;;;15.64;91.53
8051;BME280;4068;42.158;24.732;2023-04-30T05:25:14;99435.59;;;15.64;90.39
8051;BME280;4068;42.158;24.732;2023-04-30T05:27:40;99405.56;;;15.70;88.37
8051;BME280;4068;42.158;24.732;2023-04-30T05:30:06;99424.06;;;15.98;86.26
8051;BME280;4068;42.158;24.732;2023-04-30T05:32:31;99426.50;;;16.18;84.50
8051;BME280;4068;42.158;24.732;2023-04-30T05:34:57;99429.13;;;16.10;85.69
8051;BME280;4068;42.158;24.732;2023-04-30T05:37:22;99428.31;;;16.17;86.87
8051;BME280;4068;42.158;24.732;2023-04-30T05:39:47;99440.53;;;16.20;86.45
8051;BME280;4068;42.158;24.732;2023-04-30T05:42:13;99426.53;;;16.26;86.17
8051;BME280;4068;42.158;24.732;2023-04-30T05:44:39;99414.84;;;16.44;85.80
8051;BME280;4068;42.158;24.732;2023-04-30T05:47:05;99435.25;;;16.36;84.83
8051;BME280;4068;42.158;24.732;2023-04-30T05:49:31;99427.53;;;16.33;83.63
8051;BME280;4068;42.158;24.732;2023-04-30T05:51:56;99440.44;;;16.38;83.84
8051;BME280;4068;42.158;24.732;2023-04-30T05:54:22;99414.13;;;16.25;83.11
8051;BME280;4068;42.158;24.732;2023-04-30T05:56:47;99429.91;;;16.45;80.25
8051;BME280;4068;42.158;24.732;2023-04-30T05:59:12;99437.28;;;16.59;80.01
8051;BME280;4068;42.158;24.732;2023-04-30T06:01:38;99427.75;;;16.65;78.08
8051;BME280;4068;42.158;24.732;2023-04-30T06:04:04;99439.50;;;16.80;75.96
8051;BME280;4068;42.158;24.732;2023-04-30T06:06:30;99445.84;;;16.79;74.20
8051;BME280;4068;42.158;24.732;2023-04-30T06:08:56;99445.56;;;16.99;74.08
8051;BME280;4068;42.158;24.732;2023-04-30T06:11:22;99423.75;;;16.85;73.90
8051;BME280;4068;42.158;24.732;2023-04-30T06:13:49;99446.69;;;17.04;74.09
8051;BME280;4068;42.158;24.732;2023-04-30T06:16:15;99441.19;;;17.06;74.58
8051;BME280;4068;42.158;24.732;2023-04-30T06:18:41;99448.34;;;17.47;74.89
8051;BME280;4068;42.158;24.732;2023-04-30T06:21:06;99446.28;;;17.65;73.88
8051;BME280;4068;42.158;24.732;2023-04-30T06:23:31;99447.97;;;17.66;71.34
8051;BME280;4068;42.158;24.732;2023-04-30T06:25:57;99447.16;;;17.57;71.67
8051;BME280;4068;42.158;24.732;2023-04-30T06:28:23;99435.09;;;17.62;72.08
8051;BME280;4068;42.158;24.732;2023-04-30T06:30:49;99442.25;;;17.77;69.51
8051;BME280;4068;42.158;24.732;2023-04-30T06:33:16;99443.13;;;17.62;69.81
8051;BME280;4068;42.158;24.732;2023-04-30T06:35:41;99426.19;;;17.53;70.86
8051;BME280;4068;42.158;24.732;2023-04-30T06:38:07;99439.84;;;17.83;70.13
8051;BME280;4068;42.158;24.732;2023-04-30T06:40:33;99428.31;;;17.74;70.56
8051;BME280;4068;42.158;24.732;2023-04-30T06:42:58;99437.34;;;17.81;69.15
8051;BME280;4068;42.158;24.732;2023-04-30T06:45:24;99436.34;;;17.82;67.32
8051;BME280;4068;42.158;24.732;2023-04-30T06:47:49;99440.09;;;17.73;66.31
8051;BME280;4068;42.158;24.732;2023-04-30T06:50:15;99437.72;;;17.70;67.84
8051;BME280;4068;42.158;24.732;2023-04-30T06:52:41;99426.50;;;17.74;67.60
8051;BME280;4068;42.158;24.732;2023-04-30T06:55:07;99431.13;;;17.89;66.64
8051;BME280;4068;42.158;24.732;2023-04-30T06:57:33;99416.41;;;17.85;68.35
8051;BME280;4068;42.158;24.732;2023-04-30T07:00:01;99421.09;;;17.83;67.80
8051;BME280;4068;42.158;24.732;2023-04-30T07:02:28;99395.94;;;17.84;67.74
8051;BME280;4068;42.158;24.732;2023-04-30T07:04:53;99425.34;;;18.08;66.49
8051;BME280;4068;42.158;24.732;2023-04-30T07:07:19;99410.38;;;18.22;66.20
8051;BME280;4068;42.158;24.732;2023-04-30T07:09:45;99432.38;;;18.49;62.32
8051;BME280;4068;42.158;24.732;2023-04-30T07:12:10;99415.63;;;18.47;63.71
8051;BME280;4068;42.158;24.732;2023-04-30T07:14:37;99408.19;;;18.49;63.96
8051;BME280;4068;42.158;24.732;2023-04-30T07:17:03;99396.28;;;18.52;63.14
8051;BME280;4068;42.158;24.732;2023-04-30T07:19:28;99406.81;;;18.76;63.05
8051;BME280;4068;42.158;24.732;2023-04-30T07:21:54;99389.03;;;18.75;62.89
8051;BME280;4068;42.158;24.732;2023-04-30T07:24:19;99408.94;;;18.89;60.72
8051;BME280;4068;42.158;24.732;2023-04-30T07:26:45;99423.31;;;18.96;60.11
8051;BME280;4068;42.158;24.732;2023-04-30T07:29:10;99416.28;;;18.95;60.54
8051;BME280;4068;42.158;24.732;2023-04-30T07:31:36;99393.00;;;18.88;59.68
8051;BME280;4068;42.158;24.732;2023-04-30T07:34:01;99420.09;;;19.01;57.53
8051;BME280;4068;42.158;24.732;2023-04-30T07:36:26;99421.13;;;19.00;58.64
8051;BME280;4068;42.158;24.732;2023-04-30T07:38:52;99419.19;;;19.09;57.24
8051;BME280;4068;42.158;24.732;2023-04-30T07:41:17;99421.88;;;19.24;57.42
8051;BME280;4068;42.158;24.732;2023-04-30T07:43:43;99416.06;;;19.35;54.63
8051;BME280;4068;42.158;24.732;2023-04-30T07:46:08;99414.50;;;19.41;54.51
8051;BME280;4068;42.158;24.732;2023-04-30T07:48:34;99417.84;;;19.43;55.20
8051;BME280;4068;42.158;24.732;2023-04-30T07:50:59;99423.06;;;19.74;54.19
8051;BME280;4068;42.158;24.732;2023-04-30T07:53:25;99428.34;;;19.67;54.16
8051;BME280;4068;42.158;24.732;2023-04-30T07:55:50;99416.38;;;19.70;53.21
8051;BME280;4068;42.158;24.732;2023-04-30T07:58:16;99423.69;;;19.76;53.00
8051;BME280;4068;42.158;24.732;2023-04-30T08:00:41;99395.88;;;19.69;53.62
8051;BME280;4068;42.158;24.732;2023-04-30T08:03:07;99416.47;;;19.92;52.18
8051;BME280;4068;42.158;24.732;2023-04-30T08:05:32;99397.44;;;19.93;49.66
8051;BME280;4068;42.158;24.732;2023-04-30T08:07:58;99415.41;;;20.23;49.14
8051;BME280;4068;42.158;24.732;2023-04-30T08:10:23;99388.97;;;20.11;49.26
8051;BME280;4068;42.158;24.732;2023-04-30T08:12:50;99404.63;;;20.23;48.72
8051;BME280;4068;42.158;24.732;2023-04-30T08:15:17;99375.97;;;20.15;49.55
8051;BME280;4068;42.158;24.732;2023-04-30T08:17:47;99401.19;;;20.29;50.34
8051;BME280;4068;42.158;24.732;2023-04-30T08:20:13;99383.63;;;20.55;49.71
8051;BME280;4068;42.158;24.732;2023-04-30T08:22:38;99384.09;;;20.58;47.53
8051;BME280;4068;42.158;24.732;2023-04-30T08:25:04;99386.47;;;20.90;46.35
8051;BME280;4068;42.158;24.732;2023-04-30T08:27:30;99387.75;;;20.94;46.01
8051;BME280;4068;42.158;24.732;2023-04-30T08:29:56;99380.69;;;20.93;46.17
8051;BME280;4068;42.158;24.732;2023-04-30T08:32:21;99377.50;;;20.82;46.58
8051;BME280;4068;42.158;24.732;2023-04-30T08:34:47;99382.97;;;20.96;47.10
8051;BME280;4068;42.158;24.732;2023-04-30T08:37:12;99382.78;;;21.26;47.02
8051;BME280;4068;42.158;24.732;2023-04-30T08:39:38;99388.09;;;21.41;46.63
8051;BME280;4068;42.158;24.732;2023-04-30T08:42:07;99368.03;;;21.21;45.87
8051;BME280;4068;42.158;24.732;2023-04-30T08:44:33;99369.75;;;21.29;45.54
8051;BME280;4068;42.158;24.732;2023-04-30T08:47:00;99358.38;;;21.34;44.50
8051;BME280;4068;42.158;24.732;2023-04-30T08:49:27;99359.41;;;21.68;43.82
8051;BME280;4068;42.158;24.732;2023-04-30T08:51:57;99368.22;;;21.90;44.06
8051;BME280;4068;42.158;24.732;2023-04-30T08:54:25;99367.44;;;22.03;38.41
8051;BME280;4068;42.158;24.732;2023-04-30T08:56:52;99359.09;;;21.91;39.12
8051;BME280;4068;42.158;24.732;2023-04-30T08:59:18;99369.28;;;21.89;39.81
8051;BME280;4068;42.158;24.732;2023-04-30T09:01:43;99346.22;;;21.86;40.19
8051;BME280;4068;42.158;24.732;2023-04-30T09:04:09;99361.06;;;22.24;40.14
8051;BME280;4068;42.158;24.732;2023-04-30T09:06:34;99358.63;;;22.43;40.37
8051;BME280;4068;42.158;24.732;2023-04-30T09:09:16;99358.63;;;22.56;39.27
8051;BME280;4068;42.158;24.732;2023-04-30T09:11:42;99353.88;;;22.78;39.24
8051;BME280;4068;42.158;24.732;2023-04-30T09:14:08;99353.66;;;23.06;38.25
8051;BME280;4068;42.158;24.732;2023-04-30T09:16:50;99332.84;;;23.34;37.50
8051;BME280;4068;42.158;24.732;2023-04-30T09:19:34;99353.25;;;23.95;36.66
8051;BME280;4068;42.158;24.732;2023-04-30T09:22:17;99345.44;;;24.51;36.30
8051;BME280;4068;42.158;24.732;2023-04-30T09:24:47;99357.97;;;24.45;36.82
8051;BME280;4068;42.158;24.732;2023-04-30T09:27:18;99347.78;;;24.72;35.81
8051;BME280;4068;42.158;24.732;2023-04-30T09:29:43;99335.28;;;24.96;34.56
8051;BME280;4068;42.158;24.732;2023-04-30T09:32:10;99336.44;;;25.32;34.53
8051;BME280;4068;42.158;24.732;2023-04-30T09:34:36;99330.63;;;25.22;34.82
8051;BME280;4068;42.158;24.732;2023-04-30T09:37:02;99325.34;;;25.53;34.71
8051;BME280;4068;42.158;24.732;2023-04-30T09:39:28;99311.47;;;26.10;33.07
8051;BME280;4068;42.158;24.732;2023-04-30T09:42:06;99323.16;;;26.52;33.31
8051;BME280;4068;42.158;24.732;2023-04-30T09:44:36;99319.06;;;26.97;31.98
8051;BME280;4068;42.158;24.732;2023-04-30T09:47:01;99325.47;;;27.27;31.55
8051;BME280;4068;42.158;24.732;2023-04-30T09:49:27;99305.56;;;27.26;30.65
8051;BME280;4068;42.158;24.732;2023-04-30T09:51:58;99319.78;;;27.40;29.94
8051;BME280;4068;42.158;24.732;2023-04-30T09:54:30;99320.00;;;27.15;30.01
8051;BME280;4068;42.158;24.732;2023-04-30T09:56:58;99312.66;;;26.68;30.79
8051;BME280;4068;42.158;24.732;2023-04-30T09:59:33;99315.31;;;26.86;30.95
8051;BME280;4068;42.158;24.732;2023-04-30T10:02:05;99306.91;;;26.88;30.42
8051;BME280;4068;42.158;24.732;2023-04-30T10:04:38;99283.72;;;26.74;30.79
8051;BME280;4068;42.158;24.732;2023-04-30T10:07:16;99290.13;;;26.91;30.37
8051;BME280;4068;42.158;24.732;2023-04-30T10:09:52;99313.63;;;27.21;30.20
8051;BME280;4068;42.158;24.732;2023-04-30T10:12:25;99309.72;;;27.17;29.46
8051;BME280;4068;42.158;24.732;2023-04-30T10:15:00;99313.16;;;27.24;29.94
8051;BME280;4068;42.158;24.732;2023-04-30T10:17:31;99309.00;;;27.45;29.26
8051;BME280;4068;42.158;24.732;2023-04-30T10:20:02;99302.03;;;27.37;29.33
8051;BME280;4068;42.158;24.732;2023-04-30T10:22:32;99293.97;;;27.31;30.34
8051;BME280;4068;42.158;24.732;2023-04-30T10:24:58;99293.38;;;27.29;31.08
8051;BME280;4068;42.158;24.732;2023-04-30T10:27:25;99297.56;;;26.84;31.03
8051;BME280;4068;42.158;24.732;2023-04-30T10:29:51;99271.78;;;26.98;30.38
8051;BME280;4068;42.158;24.732;2023-04-30T10:32:18;99277.28;;;27.39;30.12
8051;BME280;4068;42.158;24.732;2023-04-30T10:37:17;99294.84;;;26.96;31.14
8051;BME280;4068;42.158;24.732;2023-04-30T10:39:47;99296.75;;;26.95;31.28
8051;BME280;4068;42.158;24.732;2023-04-30T10:42:13;99290.56;;;26.76;31.10
8051;BME280;4068;42.158;24.732;2023-04-30T10:44:39;99289.03;;;26.80;31.40
8051;BME280;4068;42.158;24.732;2023-04-30T10:47:05;99267.50;;;26.91;31.08
8051;BME280;4068;42.158;24.732;2023-04-30T10:49:31;99290.56;;;27.00;31.31
8051;BME280;4068;42.158;24.732;2023-04-30T10:51:59;99283.50;;;26.87;32.24
8051;BME280;4068;42.158;24.732;2023-04-30T10:54:27;99282.06;;;26.96;32.38
8051;BME280;4068;42.158;24.732;2023-04-30T11:03:02;99282.38;;;26.64;33.90
8051;BME280;4068;42.158;24.732;2023-04-30T11:05:35;99268.81;;;26.76;33.65
8051;BME280;4068;42.158;24.732;2023-04-30T11:08:02;99253.44;;;26.70;33.04
8051;BME280;4068;42.158;24.732;2023-04-30T11:10:31;99274.97;;;26.83;32.10
8051;BME280;4068;42.158;24.732;2023-04-30T11:13:02;99263.25;;;26.83;32.48
8051;BME280;4068;42.158;24.732;2023-04-30T11:15:39;99267.44;;;26.31;33.17
8051;BME280;4068;42.158;24.732;2023-04-30T11:18:08;99266.22;;;25.85;34.26
8051;BME280;4068;42.158;24.732;2023-04-30T11:20:38;99268.41;;;25.46;34.17
8051;BME280;4068;42.158;24.732;2023-04-30T11:23:15;99243.47;;;25.19;34.17
8051;BME280;4068;42.158;24.732;2023-04-30T11:25:45;99269.59;;;25.13;34.36
8051;BME280;4068;42.158;24.732;2023-04-30T11:28:19;99263.44;;;25.06;34.18
8051;BME280;4068;42.158;24.732;2023-04-30T11:30:58;99256.00;;;24.76;34.33
8051;BME280;4068;42.158;24.732;2023-04-30T11:33:25;99251.81;;;24.98;33.98
8051;BME280;4068;42.158;24.732;2023-04-30T11:35:52;99249.19;;;25.10;33.17
8051;BME280;4068;42.158;24.732;2023-04-30T11:38:36;99238.09;;;25.30;33.17
8051;BME280;4068;42.158;24.732;2023-04-30T11:41:02;99201.00;;;25.73;32.33
8051;BME280;4068;42.158;24.732;2023-04-30T11:43:30;99221.22;;;25.77;32.29
8051;BME280;4068;42.158;24.732;2023-04-30T11:46:04;99235.06;;;26.30;32.30
8051;BME280;4068;42.158;24.732;2023-04-30T11:48:35;99223.13;;;26.19;31.81
8051;BME280;4068;42.158;24.732;2023-04-30T11:51:21;99236.06;;;26.05;32.01
8051;BME280;4068;42.158;24.732;2023-04-30T11:53:48;99229.38;;;25.77;32.55
8051;BME280;4068;42.158;24.732;2023-04-30T11:56:18;99226.88;;;25.76;32.23
8051;BME280;4068;42.158;24.732;2023-04-30T11:58:45;99240.94;;;25.73;32.95
8051;BME280;4068;42.158;24.732;2023-04-30T12:01:11;99229.75;;;25.62;32.81
8051;BME280;4068;42.158;24.732;2023-04-30T12:03:41;99196.44;;;25.06;33.43
8051;BME280;4068;42.158;24.732;2023-04-30T12:06:09;99189.44;;;24.80;33.77
8051;BME280;4068;42.158;24.732;2023-04-30T12:08:34;99201.78;;;24.51;35.36
8051;BME280;4068;42.158;24.732;2023-04-30T12:11:00;99206.75;;;24.79;35.21
8051;BME280;4068;42.158;24.732;2023-04-30T12:13:25;99212.47;;;25.08;35.05
8051;BME280;4068;42.158;24.732;2023-04-30T12:15:58;99211.28;;;25.04;35.04
8051;BME280;4068;42.158;24.732;2023-04-30T12:18:24;99212.75;;;24.81;35.28
8051;BME280;4068;42.158;24.732;2023-04-30T12:20:50;99212.91;;;24.68;34.91
8051;BME280;4068;42.158;24.732;2023-04-30T12:23:16;99185.75;;;24.24;35.32
8051;BME280;4068;42.158;24.732;2023-04-30T12:25:42;99213.56;;;23.87;35.11
8051;BME280;4068;42.158;24.732;2023-04-30T12:28:08;99240.28;;;23.25;38.56
8051;BME280;4068;42.158;24.732;2023-04-30T12:30:34;99267.56;;;22.10;53.18
8051;BME280;4068;42.158;24.732;2023-04-30T12:32:59;99247.91;;;19.18;88.46
8051;BME280;4068;42.158;24.732;2023-04-30T12:35:28;99255.47;;;17.22;100.00
8051;BME280;4068;42.158;24.732;2023-04-30T12:38:04;99265.66;;;16.29;100.00
8051;BME280;4068;42.158;24.732;2023-04-30T12:40:30;99258.59;;;15.36;100.00
8051;BME280;4068;42.158;24.732;2023-04-30T12:43:03;99241.75;;;14.75;100.00
8051;BME280;4068;42.158;24.732;2023-04-30T12:45:49;99243.63;;;14.56;100.00
8051;BME280;4068;42.158;24.732;2023-04-30T12:48:23;99239.06;;;14.48;100.00
8051;BME280;4068;42.158;24.732;2023-04-30T12:50:59;99227.44;;;14.31;100.00
8051;BME280;4068;42.158;24.732;2023-04-30T12:53:29;99219.88;;;14.45;100.00
8051;BME280;4068;42.158;24.732;2023-04-30T12:56:11;99211.03;;;14.71;100.00
8051;BME280;4068;42.158;24.732;2023-04-30T12:58:40;99216.72;;;15.02;100.00
8051;BME280;4068;42.158;24.732;2023-04-30T13:01:10;99197.28;;;15.26;100.00
8051;BME280;4068;42.158;24.732;2023-04-30T13:03:36;99210.38;;;15.54;100.00
8051;BME280;4068;42.158;24.732;2023-04-30T13:06:01;99206.72;;;15.71;100.00
8051;BME280;4068;42.158;24.732;2023-04-30T13:08:29;99190.06;;;15.78;100.00
8051;BME280;4068;42.158;24.732;2023-04-30T13:10:54;99203.47;;;16.11;100.00
8051;BME280;4068;42.158;24.732;2023-04-30T13:13:20;99187.25;;;16.12;100.00
8051;BME280;4068;42.158;24.732;2023-04-30T13:15:45;99197.59;;;16.32;100.00
8051;BME280;4068;42.158;24.732;2023-04-30T13:18:11;99215.94;;;16.51;100.00
8051;BME280;4068;42.158;24.732;2023-04-30T13:20:39;99230.31;;;16.59;100.00
8051;BME280;4068;42.158;24.732;2023-04-30T13:23:05;99231.84;;;16.53;100.00
8051;BME280;4068;42.158;24.732;2023-04-30T13:25:32;99234.19;;;16.31;100.00
8051;BME280;4068;42.158;24.732;2023-04-30T13:27:58;99252.94;;;16.39;100.00
8051;BME280;4068;42.158;24.732;2023-04-30T13:30:23;99257.59;;;16.46;100.00